Time;durP1;ratioP1;P1;durP2;ratioP2;P2;SDS_P1;SDS_P2;PMS_P1;PMS_P2;Temp;Humidity;BMP_temperature;BMP_pressure;BME280_temperature;BME280_humidity;BME280_pressure;Samples;Min_cycle;Max_cycle;Signal;HPM_P1;HPM_P2
2022/12/29 00:02:11;;;;;;;2.85;1.20;;;;;;;-148.88;100.00;75123.22;5052986;28;20033;-74
2022/12/29 00:04:36;;;;;;;2.72;1.42;;;;;;;-148.88;100.00;75123.22;5035175;28;20111;-74
2022/12/29 00:07:04;;;;;;;3.38;1.25;;;;;;;-148.88;100.00;75131.34;5053274;28;20159;-73
2022/12/29 00:09:30;;;;;;;2.03;1.10;;;;;;;-148.88;100.00;75119.16;5053525;28;20021;-73
2022/12/29 00:11:55;;;;;;;2.13;0.90;;;;;;;-148.88;100.00;75121.19;5054000;28;20028;-74
2022/12/29 00:17:04;;;;;;;2.03;1.02;;;;;;;-148.88;100.00;75119.16;5053286;28;20023;-73
2022/12/29 00:36:08;;;;;;;2.42;0.80;;;;;;;-148.88;100.00;75082.63;5056972;28;20291;-73
2022/12/29 00:44:06;;;;;;;2.13;0.90;;;;;;;-148.88;100.00;75070.44;5056421;28;20526;-74
2022/12/29 00:46:38;;;;;;;1.30;0.80;;;;;;;-148.88;100.00;75062.31;5056590;28;20036;-74
2022/12/29 00:51:50;;;;;;;2.08;0.90;;;;;;;-148.88;100.00;75062.31;5056629;28;20031;-74
2022/12/29 00:54:16;;;;;;;2.10;1.27;;;;;;;-148.88;100.00;75058.25;5057074;28;20028;-73
2022/12/29 00:56:41;;;;;;;1.27;0.90;;;;;;;-148.88;100.00;75072.47;5056480;28;20033;-74
2022/12/29 00:59:09;;;;;;;1.85;0.85;;;;;;;-148.88;100.00;75050.13;5056403;28;20036;-74
2022/12/29 01:01:35;;;;;;;1.45;0.85;;;;;;;-148.88;100.00;75029.81;5056526;28;20104;-74
2022/12/29 01:04:00;;;;;;;1.95;1.00;;;;;;;-148.88;100.00;75037.94;5056196;28;20029;-74
2022/12/29 01:06:26;;;;;;;1.67;0.80;;;;;;;-148.88;100.00;75033.88;5056251;28;20041;-74
2022/12/29 01:10:09;;;;;;;1.92;0.70;;;;;;;-148.88;100.00;75023.72;5056166;28;20044;-74
2022/12/29 01:11:38;;;;;;;1.52;0.63;;;;;;;-148.88;100.00;75017.63;5055901;28;20033;-74
2022/12/29 01:14:04;;;;;;;1.58;0.88;;;;;;;-148.88;100.00;75007.47;5056070;28;20034;-74
2022/12/29 01:16:29;;;;;;;3.70;0.93;;;;;;;-148.88;100.00;75003.41;5038206;28;20033;-74
2022/12/29 01:18:54;;;;;;;1.35;0.90;;;;;;;-148.88;100.00;75017.63;5056052;28;20017;-75
2022/12/29 01:21:20;;;;;;;1.20;0.80;;;;;;;-148.88;100.00;75011.53;5056253;28;20021;-74
2022/12/29 01:23:45;;;;;;;1.70;0.80;;;;;;;-148.88;100.00;75009.50;5037978;28;20110;-73
2022/12/29 01:26:12;;;;;;;2.05;1.00;;;;;;;-148.88;100.00;75005.44;5055882;28;20032;-74
2022/12/29 01:28:41;;;;;;;1.80;1.00;;;;;;;-148.88;100.00;75001.38;5056300;28;20148;-74
2022/12/29 01:31:11;;;;;;;1.13;0.70;;;;;;;-148.88;100.00;75005.44;5055957;28;20360;-74
2022/12/29 01:33:36;;;;;;;1.65;0.93;;;;;;;-148.88;100.00;75013.56;5055964;28;20028;-74
2022/12/29 01:36:04;;;;;;;1.25;0.80;;;;;;;-148.88;100.00;75013.56;5055711;28;20032;-74
2022/12/29 01:38:29;;;;;;;1.95;1.10;;;;;;;-148.88;100.00;75013.56;5055788;28;20021;-74
2022/12/29 01:40:54;;;;;;;1.75;0.90;;;;;;;-148.88;100.00;75029.81;5037342;28;20396;-74
2022/12/29 01:43:20;;;;;;;3.08;1.02;;;;;;;-148.88;100.00;75035.91;5055438;28;20409;-75
2022/12/29 01:45:51;;;;;;;1.70;1.00;;;;;;;-148.88;100.00;75050.13;5055421;28;20044;-75
2022/12/29 01:48:18;;;;;;;1.50;0.98;;;;;;;-148.88;100.00;75062.31;5056108;28;20025;-75
2022/12/29 01:50:50;;;;;;;1.40;0.82;;;;;;;-148.88;100.00;75058.25;5056115;28;20040;-74
2022/12/29 01:53:29;;;;;;;2.25;0.88;;;;;;;-148.88;100.00;75068.41;5056005;28;20081;-74
2022/12/29 01:55:59;;;;;;;2.03;0.70;;;;;;;-148.88;100.00;75062.31;5056116;28;20021;-75
2022/12/29 01:58:29;;;;;;;1.45;0.82;;;;;;;-148.88;100.00;75062.31;5037843;28;20025;-75
2022/12/29 02:00:54;;;;;;;1.35;0.70;;;;;;;-148.88;100.00;75056.22;5055634;28;20029;-75
2022/12/29 02:03:22;;;;;;;2.00;0.80;;;;;;;-148.88;100.00;75058.25;5056034;28;20070;-75
2022/12/29 02:05:52;;;;;;;1.73;0.80;;;;;;;-148.88;100.00;75050.13;5055925;28;20040;-74
2022/12/29 02:08:19;;;;;;;1.67;0.90;;;;;;;-148.88;100.00;75046.06;5056113;28;20021;-74
2022/12/29 02:10:44;;;;;;;2.22;1.00;;;;;;;-148.88;100.00;75042.00;5055552;28;20024;-74
2022/12/29 02:13:10;;;;;;;0.88;0.52;;;;;;;-148.88;100.00;75025.75;5055360;28;20110;-74
2022/12/29 02:15:55;;;;;;;1.27;0.80;;;;;;;-148.88;100.00;75029.81;5055567;28;20029;-74
2022/12/29 02:18:32;;;;;;;1.45;0.82;;;;;;;-148.88;100.00;75025.75;5055333;28;20017;-75
2022/12/29 02:21:22;;;;;;;1.42;0.65;;;;;;;-148.88;100.00;75029.81;5055782;28;20056;-75
2022/12/29 02:23:59;;;;;;;1.13;0.63;;;;;;;-148.88;100.00;75035.91;5055122;28;20043;-75
2022/12/29 02:27:00;;;;;;;1.50;0.93;;;;;;;-148.88;100.00;75037.94;5078841;22;20049;-81
2022/12/29 02:30:05;;;;;;;1.25;0.80;;;;;;;-148.88;100.00;75035.91;5047709;28;20020;-84
2022/12/29 02:32:48;;;;;;;1.65;0.70;;;;;;;-148.88;100.00;75029.81;5060897;28;20059;-82
2022/12/29 02:35:25;;;;;;;1.45;0.77;;;;;;;-148.88;100.00;75033.88;5039417;28;20049;-84
2022/12/29 02:38:18;;;;;;;1.35;0.77;;;;;;;-148.88;100.00;75035.91;5042769;28;20033;-84
2022/12/29 02:40:53;;;;;;;1.10;0.63;;;;;;;-148.88;100.00;75019.66;5046660;28;20056;-83
2022/12/29 02:43:34;;;;;;;1.77;0.88;;;;;;;-148.88;100.00;75013.56;5046371;28;20060;-84
2022/12/29 02:46:33;;;;;;;1.15;0.60;;;;;;;-148.88;100.00;75009.50;5047366;28;20021;-83
2022/12/29 02:49:24;;;;;;;2.40;0.82;;;;;;;-148.88;100.00;74997.31;5046619;28;20421;-85
2022/12/29 02:51:57;;;;;;;1.17;0.60;;;;;;;-148.88;100.00;74983.09;5044550;28;20063;-83
2022/12/29 02:54:41;;;;;;;0.70;0.40;;;;;;;-148.88;100.00;74962.78;5063766;28;20099;-83
2022/12/29 02:57:22;;;;;;;1.08;0.57;;;;;;;-148.88;100.00;74956.69;5046775;28;20021;-83
2022/12/29 03:00:07;;;;;;;0.95;0.50;;;;;;;-148.88;100.00;74958.72;5045451;28;20079;-84
2022/12/29 03:02:58;;;;;;;0.80;0.40;;;;;;;-148.88;100.00;74948.56;5062980;28;20493;-83
2022/12/29 03:05:49;;;;;;;0.93;0.50;;;;;;;-148.88;100.00;74956.69;5062704;28;20029;-84
2022/12/29 03:08:38;;;;;;;1.38;0.60;;;;;;;-148.88;100.00;74946.53;5057472;28;20025;-82
2022/12/29 03:12:07;;;;;;;0.70;0.30;;;;;;;-148.88;100.00;74932.34;5038753;28;20036;-83
2022/12/29 03:17:00;;;;;;;0.70;0.50;;;;;;;-148.88;100.00;74924.22;5063952;28;20116;-83
2022/12/29 03:19:30;;;;;;;0.65;0.40;;;;;;;-148.88;100.00;74918.13;5044926;28;20036;-83
2022/12/29 03:24:52;;;;;;;0.45;0.35;;;;;;;-148.88;100.00;74887.66;5063335;28;20036;-83
2022/12/29 03:27:22;;;;;;;0.57;0.30;;;;;;;-148.88;100.00;74887.66;5064765;28;20035;-83
2022/12/29 03:29:55;;;;;;;0.57;0.40;;;;;;;-148.88;100.00;74883.59;5064573;28;20021;-83
2022/12/29 03:32:25;;;;;;;1.42;0.40;;;;;;;-148.88;100.00;74897.81;5046078;28;20024;-83
2022/12/29 03:34:50;;;;;;;0.57;0.38;;;;;;;-148.88;100.00;74889.69;5045340;28;20036;-84
2022/12/29 03:37:23;;;;;;;1.75;0.45;;;;;;;-148.88;100.00;74877.50;5043274;28;20017;-83
2022/12/29 03:39:49;;;;;;;0.28;0.28;;;;;;;-148.88;100.00;74871.41;5065468;28;20025;-83
2022/12/29 03:42:18;;;;;;;0.95;0.38;;;;;;;-148.88;100.00;74867.34;5064711;28;20029;-83
2022/12/29 03:44:56;;;;;;;0.77;0.47;;;;;;;-148.88;100.00;74865.31;5038614;28;20025;-82
2022/12/29 03:47:36;;;;;;;1.35;0.50;;;;;;;-148.88;100.00;74861.25;5024115;28;20102;-83
2022/12/29 03:50:08;;;;;;;1.25;0.45;;;;;;;-148.88;100.00;74851.09;5057116;28;20077;-84
2022/12/29 03:52:43;;;;;;;3.22;0.50;;;;;;;-148.88;100.00;74851.09;5063941;28;20052;-81
2022/12/29 03:55:18;;;;;;;1.85;0.43;;;;;;;-148.88;100.00;74849.06;5048305;28;20453;-83
2022/12/29 03:57:44;;;;;;;1.17;0.40;;;;;;;-148.88;100.00;74851.09;5048020;28;20041;-83
2022/12/29 04:00:13;;;;;;;1.00;0.40;;;;;;;-148.88;100.00;74838.91;5033171;28;20446;-82
2022/12/29 04:02:42;;;;;;;1.02;0.47;;;;;;;-148.88;100.00;74853.13;5064269;28;20079;-84
2022/12/29 04:08:04;;;;;;;1.55;0.40;;;;;;;-148.88;100.00;74818.59;5066830;28;20029;-83
2022/12/29 04:10:30;;;;;;;0.65;0.40;;;;;;;-148.88;100.00;74826.72;5047554;28;20032;-83
2022/12/29 04:12:55;;;;;;;0.55;0.30;;;;;;;-148.88;100.00;74822.66;5066690;28;20063;-83
2022/12/29 04:15:24;;;;;;;0.63;0.40;;;;;;;-148.88;100.00;74818.59;5046574;28;20045;-84
2022/12/29 04:17:49;;;;;;;1.65;0.50;;;;;;;-148.88;100.00;74814.53;5050904;28;20047;-83
2022/12/29 04:23:05;;;;;;;2.05;0.50;;;;;;;-148.88;100.00;74812.53;5073720;28;20024;-82
2022/12/29 04:25:32;;;;;;;1.88;0.43;;;;;;;-148.88;100.00;74808.47;5052287;28;20025;-83
2022/12/29 04:27:57;;;;;;;1.02;0.50;;;;;;;-148.88;100.00;74800.34;5066394;28;20105;-84
2022/12/29 04:30:23;;;;;;;1.25;0.60;;;;;;;-148.88;100.00;74804.41;5066898;28;20036;-84
2022/12/29 04:32:48;;;;;;;2.35;0.50;;;;;;;-148.88;100.00;74814.53;5046045;28;20507;-84
2022/12/29 04:35:17;;;;;;;1.52;0.40;;;;;;;-148.88;100.00;74806.44;5046983;28;20017;-82
2022/12/29 04:37:58;;;;;;;1.02;0.52;;;;;;;-148.88;100.00;74804.41;5045416;28;20477;-83
2022/12/29 04:40:35;;;;;;;3.05;0.52;;;;;;;-148.88;100.00;74822.66;5044390;28;20028;-84
2022/12/29 04:43:11;;;;;;;1.52;0.50;;;;;;;-148.88;100.00;74818.59;5061767;28;20032;-83
2022/12/29 04:45:54;;;;;;;1.50;0.60;;;;;;;-148.88;100.00;74804.41;5044265;28;20124;-83
2022/12/29 04:48:29;;;;;;;0.65;0.32;;;;;;;-148.88;100.00;74806.44;5047666;28;20495;-83
2022/12/29 04:50:55;;;;;;;1.67;0.50;;;;;;;-148.88;100.00;74812.53;5051808;28;20365;-83
2022/12/29 04:53:25;;;;;;;2.40;0.80;;;;;;;-148.88;100.00;74808.47;5067036;28;20024;-82
2022/12/29 04:55:52;;;;;;;2.42;0.65;;;;;;;-148.88;100.00;74842.97;5037931;28;20025;-82
2022/12/29 04:58:27;;;;;;;2.08;0.70;;;;;;;-148.88;100.00;74863.28;5059412;28;20386;-82
2022/12/29 05:00:55;;;;;;;1.17;0.60;;;;;;;-148.88;100.00;74895.78;5043380;28;20047;-81
2022/12/29 05:03:21;;;;;;;2.33;0.60;;;;;;;-148.88;100.00;74907.97;5044478;28;20021;-82
2022/12/29 05:05:52;;;;;;;2.00;0.60;;;;;;;-148.88;100.00;74899.84;5065828;28;20076;-82
2022/12/29 05:08:20;;;;;;;1.95;0.68;;;;;;;-148.88;100.00;74916.09;5068504;28;20029;-82
2022/12/29 05:11:01;;;;;;;0.43;0.32;;;;;;;-148.88;100.00;74926.25;5068112;28;20021;-83
2022/12/29 05:13:31;;;;;;;0.85;0.60;;;;;;;-148.88;100.00;74926.25;5049173;28;20032;-82
2022/12/29 05:15:57;;;;;;;1.17;0.60;;;;;;;-148.88;100.00;74932.34;5070443;28;20086;-82
2022/12/29 05:18:28;;;;;;;2.33;0.60;;;;;;;-148.88;100.00;74938.44;5072128;28;20025;-83
2022/12/29 05:20:59;;;;;;;1.58;0.50;;;;;;;-148.88;100.00;74942.47;5071312;28;20033;-83
2022/12/29 05:23:27;;;;;;;2.25;0.70;;;;;;;-148.88;100.00;74942.47;5071641;28;20028;-83
2022/12/29 05:25:58;;;;;;;2.45;1.02;;;;;;;-148.88;100.00;74932.34;5052298;28;20029;-82
2022/12/29 05:28:24;;;;;;;1.77;0.90;;;;;;;-148.88;100.00;74938.44;5050569;28;20036;-83
2022/12/29 05:30:59;;;;;;;2.08;0.80;;;;;;;-148.88;100.00;74942.47;5058746;28;20025;-81
2022/12/29 05:33:24;;;;;;;1.48;0.75;;;;;;;-148.88;100.00;74922.19;5062435;28;20493;-83
2022/12/29 05:35:49;;;;;;;3.53;1.38;;;;;;;-148.88;100.00;74914.06;5064966;28;20036;-81
2022/12/29 05:38:17;;;;;;;1.48;0.40;;;;;;;-148.88;100.00;74899.84;5047925;28;20017;-82
2022/12/29 05:40:48;;;;;;;2.13;0.80;;;;;;;-148.88;100.00;74903.91;5067512;28;20021;-82
2022/12/29 05:43:13;;;;;;;0.95;0.52;;;;;;;-148.88;100.00;74905.94;5070829;28;20120;-82
2022/12/29 05:45:39;;;;;;;1.48;0.40;;;;;;;-148.88;100.00;74885.63;5073869;28;20075;-82
2022/12/29 05:48:04;;;;;;;1.00;0.50;;;;;;;-148.88;100.00;74881.56;5062369;28;20088;-83
2022/12/29 05:50:30;;;;;;;1.52;0.60;;;;;;;-148.88;100.00;74877.50;5077784;28;20033;-83
2022/12/29 05:52:57;;;;;;;1.52;0.80;;;;;;;-148.88;100.00;74871.41;5056919;28;20025;-83
2022/12/29 05:55:28;;;;;;;9.32;0.70;;;;;;;-148.88;100.00;74859.22;5073235;28;20017;-85
2022/12/29 05:57:53;;;;;;;1.23;0.60;;;;;;;-148.88;100.00;74859.22;5073558;28;20043;-82
2022/12/29 06:00:19;;;;;;;0.90;0.45;;;;;;;-148.88;100.00;74863.28;5055156;28;20045;-82
2022/12/29 06:02:47;;;;;;;0.90;0.43;;;;;;;-148.88;100.00;74851.09;5054329;28;20067;-82
2022/12/29 06:05:31;;;;;;;2.67;0.60;;;;;;;-148.88;100.00;74842.97;5061803;28;20112;-81
2022/12/29 06:07:59;;;;;;;1.08;0.60;;;;;;;-148.88;100.00;74887.66;5061221;28;20479;-82
2022/12/29 06:10:25;;;;;;;4.30;1.00;;;;;;;-148.88;100.00;74989.19;5062383;28;20044;-83
2022/12/29 06:12:53;;;;;;;5.03;0.80;;;;;;;-148.88;100.00;75058.25;5043172;28;20020;-84
2022/12/29 06:15:19;;;;;;;4.15;0.70;;;;;;;-148.88;100.00;75074.50;5043111;28;20037;-83
2022/12/29 06:17:47;;;;;;;1.27;0.52;;;;;;;-148.88;100.00;75076.53;5063206;28;20061;-84
2022/12/29 06:20:16;;;;;;;2.17;0.30;;;;;;;-148.88;100.00;75072.47;5062881;28;20033;-85
2022/12/29 06:22:46;;;;;;;0.95;0.40;;;;;;;-148.88;100.00;75076.53;5048788;28;20044;-85
2022/12/29 06:25:17;;;;;;;1.63;0.47;;;;;;;-148.88;100.00;75086.69;5047597;28;20033;-84
2022/12/29 06:27:49;;;;;;;2.05;0.30;;;;;;;-148.88;100.00;75090.72;5047219;28;20060;-84
2022/12/29 06:30:15;;;;;;;1.70;0.40;;;;;;;-148.88;100.00;75088.72;5047023;28;20029;-85
2022/12/29 06:32:54;;;;;;;2.65;0.68;;;;;;;-148.88;100.00;75100.88;5047308;28;20031;-85
2022/12/29 06:35:21;;;;;;;1.23;0.57;;;;;;;-148.88;100.00;75113.06;5061446;28;20044;-86
2022/12/29 06:37:49;;;;;;;1.00;0.40;;;;;;;-148.88;100.00;75084.66;5061260;28;20087;-85
2022/12/29 06:40:24;;;;;;;1.80;0.43;;;;;;;-148.88;100.00;75094.81;5040826;28;20455;-84
2022/12/29 06:42:49;;;;;;;2.05;0.57;;;;;;;-148.88;100.00;75104.94;5058056;28;20063;-84
2022/12/29 06:45:18;;;;;;;1.65;0.40;;;;;;;-148.88;100.00;75098.84;5058416;28;20029;-84
2022/12/29 06:47:52;;;;;;;0.85;0.40;;;;;;;-148.88;100.00;75084.66;5042376;28;20032;-84
2022/12/29 06:50:20;;;;;;;0.95;0.40;;;;;;;-148.88;100.00;75106.97;5059326;28;20029;-85
2022/12/29 06:52:53;;;;;;;2.60;0.55;;;;;;;-148.88;100.00;75127.28;5043232;28;20058;-85
2022/12/29 06:55:22;;;;;;;3.78;0.73;;;;;;;-148.88;100.00;75129.31;5043134;28;20111;-84
2022/12/29 06:57:47;;;;;;;1.63;0.50;;;;;;;-148.88;100.00;75131.34;5042763;28;20040;-84
2022/12/29 07:00:17;;;;;;;1.67;0.82;;;;;;;-148.88;100.00;75133.38;5043067;28;20063;-85
2022/12/29 07:02:50;;;;;;;2.88;0.90;;;;;;;-148.88;100.00;75131.34;5059881;28;20021;-83
2022/12/29 07:05:16;;;;;;;3.38;1.10;;;;;;;-148.88;100.00;75139.47;5042262;28;20025;-83
2022/12/29 07:07:50;;;;;;;3.65;1.20;;;;;;;-148.88;100.00;75149.63;5043716;28;20072;-83
2022/12/29 07:10:15;;;;;;;;;;;;;;;-148.88;100.00;75149.63;5060616;28;20052;-85
2022/12/29 07:12:40;;;;;;;3.03;1.23;;;;;;;-148.88;100.00;75149.63;5041876;28;19916;-83
2022/12/29 07:15:09;;;;;;;2.80;1.00;;;;;;;-148.88;100.00;75155.72;5039432;28;20028;-83
2022/12/29 07:17:35;;;;;;;3.45;1.10;;;;;;;-148.88;100.00;75145.56;5055612;28;20029;-83
2022/12/29 07:20:06;;;;;;;4.05;1.10;;;;;;;-148.88;100.00;75151.66;5039081;28;20089;-82
2022/12/29 07:22:38;;;;;;;1.75;1.00;;;;;;;-148.88;100.00;75135.41;5037425;28;20028;-83
2022/12/29 07:25:15;;;;;;;2.53;1.13;;;;;;;-148.88;100.00;75145.56;5056946;28;20518;-82
2022/12/29 07:27:40;;;;;;;1.95;1.13;;;;;;;-148.88;100.00;75151.66;5039128;28;20017;-83
2022/12/29 07:30:27;;;;;;;1.85;0.98;;;;;;;-148.88;100.00;75149.63;5038276;28;20024;-84
2022/12/29 07:32:53;;;;;;;4.25;1.25;;;;;;;-148.88;100.00;75151.66;5055552;28;20033;-85
2022/12/29 07:35:18;;;;;;;3.80;1.08;;;;;;;-148.88;100.00;75143.53;5039443;28;20036;-83
2022/12/29 07:37:56;;;;;;;2.33;0.88;;;;;;;-148.88;100.00;75127.28;5039091;28;20036;-84
2022/12/29 07:40:21;;;;;;;5.75;0.90;;;;;;;-148.88;100.00;75131.34;5039021;28;20021;-85
2022/12/29 07:42:46;;;;;;;1.80;0.70;;;;;;;-148.88;100.00;75135.41;5038106;28;20066;-82
2022/12/29 07:45:18;;;;;;;4.40;0.90;;;;;;;-148.88;100.00;75135.41;5039729;28;20489;-85
2022/12/29 07:47:53;;;;;;;3.55;1.00;;;;;;;-148.88;100.00;75127.28;5041194;28;20056;-84
2022/12/29 07:50:36;;;;;;;4.78;0.75;;;;;;;-148.88;100.00;75131.34;5052851;28;20029;-84
2022/12/29 07:53:10;;;;;;;4.57;0.90;;;;;;;-148.88;100.00;75123.22;5037466;28;20418;-83
2022/12/29 07:55:35;;;;;;;3.03;0.70;;;;;;;-148.88;100.00;75117.13;5037003;28;20029;-84
2022/12/29 07:58:21;;;;;;;3.03;0.80;;;;;;;-148.88;100.00;75127.28;5037369;28;20024;-83
2022/12/29 08:00:56;;;;;;;4.40;0.85;;;;;;;-148.88;100.00;75127.28;5039608;28;20073;-83
2022/12/29 08:03:27;;;;;;;1.70;0.65;;;;;;;-148.88;100.00;75135.41;5054251;28;20057;-84
2022/12/29 08:06:11;;;;;;;7.22;1.00;;;;;;;-148.88;100.00;75141.50;5035628;28;20484;-84
2022/12/29 08:08:42;;;;;;;3.35;0.73;;;;;;;-148.88;100.00;75147.59;5053147;28;20096;-85
2022/12/29 08:11:34;;;;;;;2.53;0.68;;;;;;;-148.88;100.00;75135.41;5031091;28;20420;-84
2022/12/29 08:14:05;;;;;;;2.88;0.75;;;;;;;-148.88;100.00;75147.59;5035927;28;20083;-84
2022/12/29 08:16:39;;;;;;;4.40;0.90;;;;;;;-148.88;100.00;75155.72;5035549;28;20036;-84
2022/12/29 08:19:15;;;;;;;;;;;;;;;-148.88;100.00;75147.59;5032257;28;20029;-85
2022/12/29 08:21:43;;;;;;;4.22;0.70;;;;;;;-148.88;100.00;75135.41;5037410;28;19909;-83
2022/12/29 08:24:09;;;;;;;1.48;0.60;;;;;;;-148.88;100.00;75141.50;5037183;28;20424;-84
2022/12/29 08:26:34;;;;;;;1.92;0.60;;;;;;;-148.88;100.00;75123.22;5052105;28;20028;-83
2022/12/29 08:28:59;;;;;;;2.75;0.60;;;;;;;-148.88;100.00;75123.22;5035143;28;20024;-82
2022/12/29 08:31:25;;;;;;;2.45;0.93;;;;;;;-148.88;100.00;75129.31;5035295;28;20033;-84
2022/12/29 08:33:51;;;;;;;2.90;1.10;;;;;;;-148.88;100.00;75147.59;5035252;28;20044;-83
2022/12/29 08:36:16;;;;;;;4.10;0.80;;;;;;;-148.88;100.00;75121.19;5053329;28;20395;-84
2022/12/29 08:38:42;;;;;;;3.53;0.70;;;;;;;-148.88;100.00;75115.09;5053048;28;20024;-85
2022/12/29 08:41:07;;;;;;;3.55;0.85;;;;;;;-148.88;100.00;75121.19;5053319;28;20114;-86
2022/12/29 08:43:32;;;;;;;5.82;0.85;;;;;;;-148.88;100.00;75113.06;5054215;28;20083;-87
2022/12/29 08:45:59;;;;;;;6.20;0.82;;;;;;;-148.88;100.00;75117.13;5053343;28;20392;-83
2022/12/29 08:48:25;;;;;;;3.15;0.98;;;;;;;-148.88;99.79;75137.44;5053081;28;20051;-86
2022/12/29 08:50:50;;;;;;;5.82;1.00;;;;;;;-148.88;98.60;75117.13;5038837;28;20029;-84
2022/12/29 08:53:17;;;;;;;2.38;0.60;;;;;;;-148.88;98.41;75123.22;5040125;28;20033;-84
2022/12/29 08:55:46;;;;;;;3.95;1.00;;;;;;;-148.88;98.44;75131.34;5055886;28;20116;-84
2022/12/29 08:58:14;;;;;;;3.58;0.93;;;;;;;-148.88;98.28;75121.19;5039628;28;20048;-86
2022/12/29 09:00:40;;;;;;;2.33;0.70;;;;;;;-148.88;98.02;75117.13;5057177;28;20021;-84
2022/12/29 09:03:06;;;;;;;2.20;0.68;;;;;;;-148.88;97.37;75121.19;5056298;28;20024;-84
2022/12/29 09:05:31;;;;;;;2.38;0.60;;;;;;;-148.88;97.56;75123.22;5056692;28;20438;-84
2022/12/29 09:07:59;;;;;;;7.05;0.80;;;;;;;-148.88;97.66;75131.34;5057285;28;20485;-84
2022/12/29 09:10:25;;;;;;;4.68;1.08;;;;;;;-148.88;97.23;75117.13;5039017;28;20539;-82
2022/12/29 09:12:50;;;;;;;1.75;0.50;;;;;;;-148.88;95.87;75096.81;5056915;28;20024;-83
2022/12/29 09:15:16;;;;;;;4.57;1.20;;;;;;;-148.88;95.64;75094.81;5056817;28;20117;-83
2022/12/29 09:17:45;;;;;;;4.78;1.10;;;;;;;-148.88;92.74;75064.34;5039295;28;20024;-83
2022/12/29 09:20:18;;;;;;;5.82;1.27;;;;;;;-148.88;92.87;75066.38;5039058;28;20032;-85
2022/12/29 09:22:49;;;;;;;2.58;0.68;;;;;;;-148.88;92.68;75062.31;5039580;28;20527;-83
2022/12/29 09:25:15;;;;;;;1.92;0.80;;;;;;;-148.88;90.90;75062.31;5057089;28;20028;-85
2022/12/29 09:27:41;;;;;;;6.85;1.25;;;;;;;-148.88;90.30;75044.03;5055291;28;20599;-83
2022/12/29 09:30:09;;;;;;;2.20;0.82;;;;;;;-148.88;90.12;75054.19;5056960;28;20067;-83
2022/12/29 09:32:35;;;;;;;6.10;1.42;;;;;;;-148.88;89.04;75044.03;5056031;28;20033;-83
2022/12/29 09:35:01;;;;;;;3.75;0.90;;;;;;;-148.88;88.55;75033.88;5039697;28;20021;-81
2022/12/29 09:37:27;;;;;;;4.05;1.30;;;;;;;-148.88;88.06;75046.06;5057301;28;20079;-82
2022/12/29 09:39:58;;;;;;;2.65;1.20;;;;;;;-148.88;88.43;75072.47;5039570;28;20029;-82
2022/12/29 09:42:40;;;;;;;4.35;0.90;;;;;;;-148.88;86.99;75046.06;5023500;28;20037;-83
2022/12/29 09:45:08;;;;;;;2.80;0.70;;;;;;;-148.88;86.50;75062.31;5057350;28;20438;-83
2022/12/29 09:47:34;;;;;;;3.90;1.30;;;;;;;-148.88;86.48;75062.31;5039727;28;20049;-82
2022/12/29 09:50:30;;;;;;;4.35;1.00;;;;;;;-148.88;86.99;75046.06;5038788;28;20079;-83
2022/12/29 09:53:16;;;;;;;3.13;0.80;;;;;;;-148.88;87.27;75035.91;5039819;28;20024;-85
2022/12/29 09:55:48;;;;;;;2.40;1.00;;;;;;;-148.88;86.10;75021.69;5057067;28;20485;-85
2022/12/29 09:58:29;;;;;;;3.75;0.68;;;;;;;-148.88;86.33;75013.56;5057519;28;20027;-84
2022/12/29 10:01:05;;;;;;;2.83;0.75;;;;;;;-148.88;87.21;75007.47;5038983;28;20029;-82
2022/12/29 10:03:37;;;;;;;6.55;1.38;;;;;;;-148.88;85.07;75015.59;5058094;28;20029;-83
2022/12/29 10:06:13;;;;;;;6.22;1.27;;;;;;;-148.88;82.08;74993.25;5039674;28;20029;-82
2022/12/29 10:08:44;;;;;;;3.83;0.98;;;;;;;-148.88;81.64;75003.41;5041357;28;20025;-84
2022/12/29 10:11:26;;;;;;;5.68;0.90;;;;;;;-148.88;83.45;75011.53;5038279;28;20037;-85
2022/12/29 10:14:39;;;;;;;3.63;0.93;;;;;;;-148.88;82.47;75005.44;5039395;28;20079;-85
2022/12/29 10:17:22;;;;;;;4.65;0.90;;;;;;;-148.88;82.89;74989.19;5024217;28;20044;-86
2022/12/29 10:20:17;;;;;;;7.65;1.92;;;;;;;-148.88;81.52;74977.00;5056628;28;20388;-84
2022/12/29 10:23:01;;;;;;;6.32;1.20;;;;;;;-148.88;80.33;74962.78;5059714;28;20032;-85
2022/12/29 10:25:32;;;;;;;4.25;0.77;;;;;;;-148.88;79.63;74981.06;5041267;28;20033;-85
2022/12/29 10:28:03;;;;;;;4.07;1.20;;;;;;;-148.88;78.39;74958.72;5058741;28;20025;-84
2022/12/29 10:30:29;;;;;;;4.93;1.60;;;;;;;-148.88;80.39;74995.28;5056794;28;20076;-85
2022/12/29 10:33:01;;;;;;;5.80;1.20;;;;;;;-148.88;80.84;74993.25;5039295;28;20017;-85
2022/12/29 10:35:35;;;;;;;6.30;1.58;;;;;;;-148.88;81.83;74985.13;5057152;28;20435;-84
2022/12/29 10:38:15;;;;;;;4.95;1.35;;;;;;;-148.88;83.03;75005.44;5038667;28;20013;-84
2022/12/29 10:40:54;;;;;;;4.50;1.50;;;;;;;-148.88;85.27;75021.69;5056140;28;20021;-86
2022/12/29 10:43:25;;;;;;;5.25;1.58;;;;;;;-148.88;86.41;75025.75;5055045;28;20036;-87
2022/12/29 10:45:54;;;;;;;4.07;1.30;;;;;;;-148.88;88.27;75021.69;5037376;28;20032;-85
2022/12/29 10:48:22;;;;;;;4.72;1.20;;;;;;;-148.88;87.40;75021.69;5055077;28;20512;-85
2022/12/29 10:50:50;;;;;;;7.63;2.10;;;;;;;-148.88;88.66;75005.44;5038313;28;20028;-83
2022/12/29 10:53:26;;;;;;;6.25;1.65;;;;;;;-148.88;87.66;75007.47;5056233;28;20031;-85
2022/12/29 10:55:53;;;;;;;6.18;1.70;;;;;;;-148.88;89.45;75015.59;5056272;28;20035;-85
2022/12/29 10:58:19;;;;;;;4.90;2.10;;;;;;;-148.88;88.75;75031.84;5055388;28;20474;-84
2022/12/29 11:00:53;;;;;;;6.78;1.70;;;;;;;-148.88;86.39;75013.56;5038143;28;20119;-84
2022/12/29 11:03:42;;;;;;;6.35;1.50;;;;;;;-148.88;84.34;74997.31;5055315;28;20041;-85
2022/12/29 11:06:25;;;;;;;3.30;0.95;;;;;;;-148.88;85.16;75005.44;5054471;28;20481;-85
2022/12/29 11:09:01;;;;;;;8.93;1.55;;;;;;;-148.88;85.49;75007.47;5038691;28;20025;-84
2022/12/29 11:11:36;;;;;;;4.00;1.70;;;;;;;-148.88;84.60;75007.47;5037509;28;20053;-85
2022/12/29 11:14:08;;;;;;;3.35;0.88;;;;;;;-148.88;83.46;75011.53;5054024;28;20112;-84
2022/12/29 11:16:34;;;;;;;6.20;1.67;;;;;;;-148.88;83.87;74997.31;5036992;28;20025;-86
2022/12/29 11:19:01;;;;;;;5.55;1.98;;;;;;;-148.88;84.75;75013.56;5037232;28;20507;-85
2022/12/29 11:21:41;;;;;;;6.65;1.80;;;;;;;-148.88;85.10;75013.56;5054477;28;20025;-86
2022/12/29 11:24:28;;;;;;;5.53;1.65;;;;;;;-148.88;85.07;75007.47;5053080;28;20055;-86
2022/12/29 11:26:59;;;;;;;5.53;1.77;;;;;;;-148.88;85.58;75003.41;5054338;28;20033;-85
2022/12/29 11:29:38;;;;;;;9.30;1.75;;;;;;;-148.88;85.72;75005.44;5052982;28;20020;-86
2022/12/29 11:32:22;;;;;;;6.75;1.90;;;;;;;-148.88;87.33;75009.50;5034614;28;20047;-85
2022/12/29 11:34:47;;;;;;;5.13;1.13;;;;;;;-148.88;86.96;75003.41;5037040;28;20025;-86
2022/12/29 11:37:17;;;;;;;7.47;1.90;;;;;;;-148.88;87.01;75003.41;5036715;28;20051;-86
2022/12/29 11:39:57;;;;;;;6.65;1.60;;;;;;;-148.88;87.54;74995.28;5036464;28;20401;-86
2022/12/29 11:42:33;;;;;;;6.85;1.52;;;;;;;-148.88;86.72;74995.28;5036619;28;20393;-85
2022/12/29 11:45:04;;;;;;;4.45;1.38;;;;;;;-148.88;86.80;75005.44;5036051;28;20049;-86
2022/12/29 11:47:32;;;;;;;9.85;1.50;;;;;;;-148.88;85.24;74989.19;5036913;28;20023;-85
2022/12/29 11:50:06;;;;;;;5.88;1.50;;;;;;;-148.88;87.38;74991.22;5052990;28;20083;-87
2022/12/29 11:52:35;;;;;;;3.72;1.67;;;;;;;-148.88;85.39;74989.19;5037138;28;20024;-84
2022/12/29 11:55:04;;;;;;;5.93;1.67;;;;;;;-148.88;85.52;74997.31;5056313;28;20025;-83
2022/12/29 11:57:33;;;;;;;4.78;1.25;;;;;;;-148.88;86.33;74999.34;5036568;28;20067;-84
2022/12/29 12:00:03;;;;;;;4.63;1.55;;;;;;;-148.88;85.76;75005.44;5036535;28;20043;-84
2022/12/29 12:02:41;;;;;;;6.47;1.70;;;;;;;-148.88;86.02;75005.44;5035925;28;20031;-85
2022/12/29 12:05:14;;;;;;;4.22;1.13;;;;;;;-148.88;86.96;75007.47;5035805;28;20059;-85
2022/12/29 12:07:46;;;;;;;5.35;1.63;;;;;;;-148.88;86.40;75003.41;5035692;28;20013;-85
2022/12/29 12:10:23;;;;;;;4.35;1.70;;;;;;;-148.88;86.94;75017.63;5035749;28;20037;-85
2022/12/29 12:12:59;;;;;;;5.03;1.35;;;;;;;-148.88;86.49;75009.50;5052983;28;20484;-85